createdAt,value
2022-10-08T00:01:15.579Z,10.48
2022-10-08T00:03:50.445Z,10.42
2022-10-08T00:06:37.735Z,10.35
2022-10-08T00:09:08.802Z,10.32
2022-10-08T00:11:40.456Z,10.29
2022-10-08T00:14:09.260Z,10.25
2022-10-08T00:16:41.360Z,10.19
2022-10-08T00:19:14.723Z,10.17
2022-10-08T00:21:44.118Z,10.18
2022-10-08T00:24:14.729Z,10.15
2022-10-08T00:26:44.790Z,10.14
2022-10-08T00:29:16.959Z,10.14
2022-10-08T00:31:46.118Z,10.16
2022-10-08T00:34:18.029Z,10.15
2022-10-08T00:36:45.345Z,10.15
2022-10-08T00:39:15.397Z,10.14
2022-10-08T00:41:48.865Z,10.15
2022-10-08T00:44:46.755Z,10.13
2022-10-08T00:47:19.384Z,10.08
2022-10-08T00:49:49.320Z,10.03
2022-10-08T00:52:18.524Z,10.06
2022-10-08T00:54:46.597Z,10.04
2022-10-08T00:57:13.552Z,10.00
2022-10-08T00:59:40.636Z,9.99
2022-10-08T01:02:09.046Z,9.95
2022-10-08T01:04:38.292Z,9.89
2022-10-08T01:07:20.290Z,9.85
2022-10-08T01:10:02.730Z,9.88
2022-10-08T01:12:53.388Z,9.87
2022-10-08T01:15:28.151Z,9.83
2022-10-08T01:18:14.342Z,9.78
2022-10-08T01:20:58.349Z,9.80
2022-10-08T01:23:37.575Z,9.79
2022-10-08T01:26:16.632Z,9.81
2022-10-08T01:28:51.738Z,9.85
2022-10-08T01:31:27.981Z,9.87
2022-10-08T01:34:01.817Z,9.84
2022-10-08T01:36:35.622Z,9.83
2022-10-08T01:39:08.350Z,9.86
2022-10-08T01:41:35.814Z,9.97
2022-10-08T01:44:07.324Z,10.04
2022-10-08T01:46:38.500Z,10.09
2022-10-08T01:49:10.939Z,10.11
2022-10-08T01:51:45.308Z,10.19
2022-10-08T01:54:16.363Z,10.30
2022-10-08T01:56:46.225Z,10.38
2022-10-08T01:59:37.675Z,10.42
2022-10-08T02:02:14.662Z,10.46
2022-10-08T02:04:45.045Z,10.52
2022-10-08T02:07:18.544Z,10.61
2022-10-08T02:09:51.400Z,10.69
2022-10-08T02:12:20.372Z,10.78
2022-10-08T02:14:51.177Z,10.88
2022-10-08T02:17:29.280Z,10.98
2022-10-08T02:19:56.949Z,11.07
2022-10-08T02:22:38.263Z,11.18
2022-10-08T02:25:14.596Z,11.28
2022-10-08T02:27:59.167Z,11.35
2022-10-08T02:30:32.227Z,11.36
2022-10-08T02:33:05.260Z,11.36
2022-10-08T02:35:40.098Z,11.29
2022-10-08T02:38:16.929Z,11.19
2022-10-08T02:40:48.898Z,11.11
2022-10-08T02:43:26.625Z,11.02
2022-10-08T02:46:01.801Z,10.97
2022-10-08T02:48:34.102Z,10.88
2022-10-08T02:51:08.120Z,10.77
2022-10-08T02:53:38.165Z,10.59
2022-10-08T02:56:28.870Z,10.40
2022-10-08T02:58:58.988Z,10.30
2022-10-08T03:01:54.298Z,10.18
2022-10-08T03:04:36.462Z,10.07
2022-10-08T03:07:05.245Z,10.02
2022-10-08T03:09:36.939Z,9.96
2022-10-08T03:12:04.461Z,9.92
2022-10-08T03:14:35.186Z,9.90
2022-10-08T03:17:02.455Z,9.89
2022-10-08T03:19:31.768Z,9.89
2022-10-08T03:21:58.666Z,9.92
2022-10-08T03:24:25.679Z,9.95
2022-10-08T03:26:55.324Z,10.00
2022-10-08T03:29:22.368Z,10.09
2022-10-08T03:31:49.807Z,10.19
2022-10-08T03:34:16.889Z,10.31
2022-10-08T03:36:43.811Z,10.37
2022-10-08T03:39:11.747Z,10.48
2022-10-08T03:41:39.069Z,10.55
2022-10-08T03:44:10.854Z,10.65
2022-10-08T03:46:38.272Z,10.72
2022-10-08T03:49:05.462Z,10.80
2022-10-08T03:51:32.614Z,10.89
2022-10-08T03:53:59.540Z,10.96
2022-10-08T03:56:26.870Z,11.02
2022-10-08T03:59:00.897Z,11.14
2022-10-08T04:01:29.159Z,11.24
2022-10-08T04:03:56.218Z,11.34
2022-10-08T04:06:23.540Z,11.50
2022-10-08T04:08:50.576Z,11.67
2022-10-08T04:11:18.262Z,11.76
2022-10-08T04:13:45.743Z,11.85
2022-10-08T04:16:15.084Z,11.95
2022-10-08T04:18:42.689Z,12.02
2022-10-08T04:21:13.220Z,12.10
2022-10-08T04:23:41.570Z,12.12
2022-10-08T04:26:12.626Z,12.14
2022-10-08T04:28:41.484Z,12.18
2022-10-08T04:31:12.626Z,12.22
2022-10-08T04:33:42.092Z,12.23
2022-10-08T04:36:14.751Z,12.26
2022-10-08T04:38:43.119Z,12.32
2022-10-08T04:41:16.220Z,12.32
2022-10-08T04:43:44.619Z,12.36
2022-10-08T04:46:14.564Z,12.36
2022-10-08T04:48:46.645Z,12.40
2022-10-08T04:51:16.637Z,12.38
2022-10-08T04:53:43.921Z,12.44
2022-10-08T04:56:17.266Z,12.43
2022-10-08T04:58:45.168Z,12.45
2022-10-08T05:01:14.699Z,12.45
2022-10-08T05:03:44.935Z,12.47
2022-10-08T05:06:14.887Z,12.49
2022-10-08T05:08:42.162Z,12.51
2022-10-08T05:11:09.449Z,12.53
2022-10-08T05:13:41.293Z,12.55
2022-10-08T05:16:13.712Z,12.57
2022-10-08T05:18:43.269Z,12.56
2022-10-08T05:21:12.882Z,12.49
2022-10-08T05:23:40.639Z,12.47
2022-10-08T05:26:16.655Z,12.45
2022-10-08T05:28:47.117Z,12.42
2022-10-08T05:31:16.094Z,12.42
2022-10-08T05:33:44.223Z,12.38
2022-10-08T05:36:17.885Z,12.42
2022-10-08T05:38:45.643Z,12.38
2022-10-08T05:41:21.757Z,12.42
2022-10-08T05:43:50.038Z,12.41
2022-10-08T05:46:17.940Z,12.43
2022-10-08T05:48:48.135Z,12.46
2022-10-08T05:51:17.334Z,12.46
2022-10-08T05:53:47.212Z,12.52
2022-10-08T05:56:16.891Z,12.54
2022-10-08T05:58:44.785Z,12.57
2022-10-08T06:01:17.938Z,12.61
2022-10-08T06:03:49.531Z,12.67
2022-10-08T06:06:17.188Z,12.71
2022-10-08T06:08:46.971Z,12.75
2022-10-08T06:11:14.306Z,12.81
2022-10-08T06:13:41.271Z,12.89
2022-10-08T06:16:10.876Z,12.89
2022-10-08T06:18:40.946Z,12.96
2022-10-08T06:21:14.244Z,13.00
2022-10-08T06:23:46.720Z,13.03
2022-10-08T06:26:13.761Z,13.10
2022-10-08T06:28:41.227Z,13.19
2022-10-08T06:31:11.915Z,13.24
2022-10-08T06:33:39.199Z,13.33
2022-10-08T06:36:08.379Z,13.41
2022-10-08T06:38:35.482Z,13.55
2022-10-08T06:41:04.751Z,13.62
2022-10-08T06:43:31.840Z,13.70
2022-10-08T06:46:00.304Z,13.78
2022-10-08T06:48:27.672Z,13.67
2022-10-08T06:51:04.987Z,13.80
2022-10-08T06:53:35.313Z,13.84
2022-10-08T06:56:05.309Z,13.87
2022-10-08T06:58:34.348Z,13.86
2022-10-08T07:01:09.079Z,14.11
2022-10-08T07:03:37.204Z,14.23
2022-10-08T07:06:10.197Z,14.15
2022-10-08T07:08:37.992Z,14.10
2022-10-08T07:11:10.263Z,14.06
2022-10-08T07:13:38.826Z,14.04
2022-10-08T07:16:20.301Z,14.08
2022-10-08T07:18:49.885Z,14.08
2022-10-08T07:21:18.729Z,14.07
2022-10-08T07:23:45.880Z,14.02
2022-10-08T07:26:23.717Z,13.99
2022-10-08T07:28:52.436Z,14.05
2022-10-08T07:31:22.691Z,14.00
2022-10-08T07:33:50.225Z,14.04
2022-10-08T07:36:19.895Z,14.08
2022-10-08T07:38:48.116Z,14.01
2022-10-08T07:41:15.119Z,14.07
2022-10-08T07:43:43.184Z,14.07
2022-10-08T07:46:11.937Z,14.11
2022-10-08T07:48:39.795Z,14.11
2022-10-08T07:51:20.659Z,14.14
2022-10-08T07:53:50.223Z,14.17
2022-10-08T07:56:19.623Z,14.22
2022-10-08T07:58:47.491Z,14.26
2022-10-08T08:01:18.879Z,14.30
2022-10-08T08:03:51.802Z,14.28
2022-10-08T08:06:18.980Z,14.28
2022-10-08T08:08:46.146Z,14.31
2022-10-08T08:11:15.593Z,14.35
2022-10-08T08:13:46.213Z,14.44
2022-10-08T08:16:19.636Z,14.53
2022-10-08T08:18:49.834Z,14.55
2022-10-08T08:21:22.058Z,14.59
2022-10-08T08:23:51.950Z,14.70
2022-10-08T08:26:28.858Z,14.78
2022-10-08T08:28:58.404Z,14.94
2022-10-08T08:31:29.755Z,15.04
2022-10-08T08:34:02.826Z,15.09
2022-10-08T08:36:33.221Z,15.30
2022-10-08T08:39:00.992Z,15.51
2022-10-08T08:41:34.081Z,15.51
2022-10-08T08:44:29.149Z,15.72
2022-10-08T08:47:01.893Z,15.78
2022-10-08T08:49:35.077Z,15.91
2022-10-08T08:52:04.756Z,16.06
2022-10-08T08:54:34.466Z,16.14
2022-10-08T08:57:16.249Z,16.14
2022-10-08T08:59:47.253Z,16.09
2022-10-08T09:02:28.759Z,16.17
2022-10-08T09:05:03.474Z,16.28
2022-10-08T09:07:45.633Z,16.34
2022-10-08T09:10:23.694Z,16.37
2022-10-08T09:12:53.711Z,16.40
2022-10-08T09:15:29.350Z,16.69
2022-10-08T09:17:56.398Z,16.81
2022-10-08T09:20:25.804Z,16.93
2022-10-08T09:22:54.289Z,17.28
2022-10-08T09:25:24.920Z,17.25
2022-10-08T09:27:57.913Z,17.44
2022-10-08T09:30:24.930Z,17.67
2022-10-08T09:32:58.032Z,17.58
2022-10-08T09:35:25.550Z,17.58
2022-10-08T09:37:53.059Z,17.86
2022-10-08T09:40:26.493Z,18.21
2022-10-08T09:43:17.488Z,19.00
2022-10-08T09:45:47.462Z,19.01
2022-10-08T09:48:22.692Z,19.08
2022-10-08T09:50:55.872Z,18.84
2022-10-08T09:53:25.110Z,18.59
2022-10-08T09:56:02.759Z,18.58
2022-10-08T09:58:35.944Z,18.83
2022-10-08T10:01:17.471Z,19.03
2022-10-08T10:03:51.187Z,19.08
2022-10-08T10:06:46.407Z,19.06
2022-10-08T10:09:40.605Z,19.10
2022-10-08T10:12:26.495Z,19.19
2022-10-08T10:15:11.159Z,18.57
2022-10-08T10:17:54.355Z,18.78
2022-10-08T10:20:34.853Z,18.92
2022-10-08T10:23:42.903Z,19.02
2022-10-08T10:26:21.846Z,19.16
2022-10-08T10:28:55.119Z,19.29
2022-10-08T10:31:33.774Z,19.07
2022-10-08T10:34:20.951Z,19.09
2022-10-08T10:36:52.405Z,18.99
2022-10-08T10:39:30.723Z,19.03
2022-10-08T10:42:16.195Z,18.85
2022-10-08T10:44:53.901Z,18.97
2022-10-08T10:47:31.776Z,19.08
2022-10-08T10:50:02.082Z,19.21
2022-10-08T10:52:38.627Z,19.19
2022-10-08T10:55:18.569Z,19.36
2022-10-08T10:58:04.314Z,19.53
2022-10-08T11:00:49.655Z,19.58
2022-10-08T11:03:47.706Z,19.63
2022-10-08T11:06:38.776Z,19.49
2022-10-08T11:09:17.838Z,19.73
2022-10-08T11:12:01.705Z,19.90
2022-10-08T11:14:54.492Z,19.94
2022-10-08T11:17:25.085Z,19.79
2022-10-08T11:19:58.252Z,19.95
2022-10-08T11:22:45.009Z,20.02
2022-10-08T11:25:20.888Z,19.99
2022-10-08T11:27:57.017Z,20.04
2022-10-08T11:30:44.657Z,20.11
2022-10-08T11:33:16.089Z,20.25
2022-10-08T11:36:05.219Z,20.30
2022-10-08T11:38:43.702Z,20.36
2022-10-08T11:41:21.410Z,20.30
2022-10-08T11:44:01.794Z,20.12
2022-10-08T11:46:31.315Z,19.90
2022-10-08T11:49:27.088Z,20.08
2022-10-08T11:52:12.275Z,20.17
2022-10-08T11:54:41.998Z,20.17
2022-10-08T11:57:19.800Z,20.12
2022-10-08T12:00:02.035Z,20.07
2022-10-08T12:02:39.262Z,20.16
2022-10-08T12:05:18.571Z,20.12
2022-10-08T12:08:00.069Z,20.04
2022-10-08T12:10:34.936Z,20.02
2022-10-08T12:13:26.588Z,19.94
2022-10-08T12:15:54.907Z,19.96
2022-10-08T12:18:26.440Z,19.88
2022-10-08T12:21:20.526Z,19.83
2022-10-08T12:23:47.942Z,19.86
2022-10-08T12:26:16.617Z,19.99
2022-10-08T12:28:43.780Z,20.03
2022-10-08T12:31:25.279Z,20.06
2022-10-08T12:33:57.950Z,19.87
2022-10-08T12:36:59.271Z,19.88
2022-10-08T12:39:43.145Z,19.92
2022-10-08T12:42:23.456Z,20.02
2022-10-08T12:45:18.625Z,20.01
2022-10-08T12:48:04.573Z,20.10
2022-10-08T12:51:07.113Z,20.17
2022-10-08T12:53:34.452Z,20.15
2022-10-08T12:56:04.332Z,20.22
2022-10-08T12:58:37.587Z,20.25
2022-10-08T13:01:07.007Z,20.13
2022-10-08T13:03:33.985Z,20.21
2022-10-08T13:06:31.781Z,20.28
2022-10-08T13:09:01.123Z,20.11
2022-10-08T13:11:30.351Z,20.14
2022-10-08T13:13:57.344Z,20.09
2022-10-08T13:16:26.809Z,20.03
2022-10-08T13:18:57.521Z,19.95
2022-10-08T13:21:32.496Z,19.92
2022-10-08T13:24:02.022Z,19.95
2022-10-08T13:26:37.990Z,20.02
2022-10-08T13:29:23.682Z,20.03
2022-10-08T13:32:04.439Z,20.16
2022-10-08T13:34:31.506Z,20.16
2022-10-08T13:37:00.689Z,20.11
2022-10-08T13:39:34.736Z,20.15
2022-10-08T13:42:07.321Z,20.11
2022-10-08T13:44:35.118Z,19.97
2022-10-08T13:47:03.891Z,19.90
2022-10-08T13:49:33.092Z,19.83
2022-10-08T13:52:01.293Z,19.77
2022-10-08T13:54:31.814Z,19.74
2022-10-08T13:56:59.491Z,19.65
2022-10-08T13:59:30.478Z,19.65
2022-10-08T14:01:58.536Z,19.64
2022-10-08T14:04:25.610Z,19.57
2022-10-08T14:06:58.308Z,19.62
2022-10-08T14:09:28.619Z,19.64
2022-10-08T14:11:59.451Z,19.65
2022-10-08T14:14:27.670Z,19.68
2022-10-08T14:16:54.676Z,19.71
2022-10-08T14:19:21.731Z,19.57
2022-10-08T14:21:55.220Z,19.58
2022-10-08T14:24:24.666Z,19.53
2022-10-08T14:26:51.829Z,19.50
2022-10-08T14:29:24.894Z,19.48
2022-10-08T14:31:51.992Z,19.48
2022-10-08T14:34:19.225Z,19.48
2022-10-08T14:36:46.656Z,19.47
2022-10-08T14:39:13.782Z,19.42
2022-10-08T14:41:40.940Z,19.36
2022-10-08T14:44:08.194Z,19.35
2022-10-08T14:46:35.448Z,19.37
2022-10-08T14:49:04.856Z,19.47
2022-10-08T14:51:38.420Z,19.47
2022-10-08T14:54:07.213Z,19.41
2022-10-08T14:56:43.765Z,19.29
2022-10-08T14:59:11.335Z,19.19
2022-10-08T15:01:39.336Z,19.11
2022-10-08T15:04:07.241Z,19.08
2022-10-08T15:06:38.200Z,18.97
2022-10-08T15:09:05.573Z,18.93
2022-10-08T15:11:32.799Z,18.95
2022-10-08T15:13:59.968Z,18.88
2022-10-08T15:16:29.403Z,18.82
2022-10-08T15:18:56.589Z,18.82
2022-10-08T15:21:23.552Z,18.74
2022-10-08T15:23:50.884Z,18.70
2022-10-08T15:26:18.565Z,18.67
2022-10-08T15:28:46.461Z,18.57
2022-10-08T15:31:16.129Z,18.45
2022-10-08T15:33:48.555Z,18.38
2022-10-08T15:36:26.340Z,18.24
2022-10-08T15:39:12.047Z,18.06
2022-10-08T15:41:42.212Z,17.95
2022-10-08T15:44:15.453Z,17.81
2022-10-08T15:46:42.555Z,17.73
2022-10-08T15:49:09.507Z,17.55
2022-10-08T15:51:36.627Z,17.42
2022-10-08T15:54:09.255Z,17.29
2022-10-08T15:56:39.685Z,17.23
2022-10-08T15:59:09.813Z,17.16
2022-10-08T16:01:37.254Z,17.10
2022-10-08T16:04:04.782Z,17.04
2022-10-08T16:06:35.901Z,16.93
2022-10-08T16:09:04.057Z,16.86
2022-10-08T16:11:34.989Z,16.82
2022-10-08T16:14:04.533Z,16.74
2022-10-08T16:16:31.808Z,16.62
2022-10-08T16:19:04.154Z,16.52
2022-10-08T16:21:33.733Z,16.43
2022-10-08T16:24:02.027Z,16.33
2022-10-08T16:26:34.614Z,16.19
2022-10-08T16:29:05.383Z,16.11
2022-10-08T16:31:34.704Z,16.01
2022-10-08T16:34:04.052Z,15.88
2022-10-08T16:36:33.994Z,15.76
2022-10-08T16:39:05.176Z,15.66
2022-10-08T16:41:34.240Z,15.58
2022-10-08T16:44:12.015Z,15.47
2022-10-08T16:46:43.367Z,15.35
2022-10-08T16:49:13.708Z,15.31
2022-10-08T16:51:41.320Z,15.25
2022-10-08T16:54:12.827Z,15.15
2022-10-08T16:56:43.733Z,15.05
2022-10-08T16:59:13.947Z,14.96
2022-10-08T17:01:43.206Z,14.94
2022-10-08T17:04:12.027Z,14.85
2022-10-08T17:06:39.185Z,14.78
2022-10-08T17:09:06.869Z,14.69
2022-10-08T17:11:35.706Z,14.78
2022-10-08T17:14:03.638Z,14.66
2022-10-08T17:16:31.754Z,14.62
2022-10-08T17:19:00.467Z,14.56
2022-10-08T17:21:28.932Z,14.57
2022-10-08T17:23:59.981Z,14.54
2022-10-08T17:26:29.084Z,14.53
2022-10-08T17:28:57.306Z,14.55
2022-10-08T17:31:26.825Z,14.53
2022-10-08T17:33:59.680Z,14.45
2022-10-08T17:36:32.862Z,14.38
2022-10-08T17:39:01.713Z,14.30
2022-10-08T17:41:38.309Z,14.23
2022-10-08T17:44:08.235Z,14.27
2022-10-08T17:46:46.277Z,14.20
2022-10-08T17:49:16.754Z,14.19
2022-10-08T17:51:45.364Z,14.15
2022-10-08T17:54:17.526Z,14.14
2022-10-08T17:56:45.602Z,14.12
2022-10-08T17:59:18.138Z,14.10
2022-10-08T18:01:46.603Z,14.08
2022-10-08T18:04:18.051Z,14.05
2022-10-08T18:06:48.142Z,14.10
2022-10-08T18:09:19.221Z,14.06
2022-10-08T18:11:51.155Z,14.00
2022-10-08T18:14:19.649Z,14.02
2022-10-08T18:16:48.631Z,14.04
2022-10-08T18:19:17.047Z,14.13
2022-10-08T18:21:47.545Z,14.05
2022-10-08T18:24:16.102Z,14.02
2022-10-08T18:26:43.930Z,13.97
2022-10-08T18:29:13.992Z,14.02
2022-10-08T18:31:43.306Z,13.98
2022-10-08T18:34:14.413Z,13.96
2022-10-08T18:36:41.598Z,13.95
2022-10-08T18:39:12.808Z,13.91
2022-10-08T18:41:43.635Z,13.89
2022-10-08T18:44:18.832Z,13.84
2022-10-08T18:46:47.507Z,13.89
2022-10-08T18:49:21.201Z,13.92
2022-10-08T18:51:50.656Z,13.97
2022-10-08T18:54:20.922Z,14.12
2022-10-08T18:56:49.132Z,14.26
2022-10-08T18:59:19.163Z,14.42
2022-10-08T19:01:49.360Z,14.61
2022-10-08T19:04:22.643Z,14.83
2022-10-08T19:06:53.688Z,15.05
2022-10-08T19:09:22.070Z,15.19
2022-10-08T19:11:53.012Z,15.30
2022-10-08T19:14:22.235Z,15.29
2022-10-08T19:16:50.454Z,15.33
2022-10-08T19:19:22.672Z,15.44
2022-10-08T19:21:53.966Z,15.46
2022-10-08T19:24:26.492Z,15.41
2022-10-08T19:26:57.680Z,15.39
2022-10-08T19:29:29.666Z,15.36
2022-10-08T19:31:58.828Z,15.30
2022-10-08T19:34:28.079Z,15.28
2022-10-08T19:36:57.613Z,15.22
2022-10-08T19:39:32.182Z,15.22
2022-10-08T19:42:01.145Z,15.20
2022-10-08T19:44:29.378Z,15.16
2022-10-08T19:46:57.443Z,15.13
2022-10-08T19:49:26.008Z,15.10
2022-10-08T19:51:56.136Z,15.05
2022-10-08T19:54:24.128Z,14.99
2022-10-08T19:56:51.690Z,14.91
2022-10-08T19:59:18.906Z,14.83
2022-10-08T20:01:46.078Z,14.81
2022-10-08T20:04:14.248Z,14.76
2022-10-08T20:06:42.890Z,14.70
2022-10-08T20:09:12.453Z,14.68
2022-10-08T20:11:41.875Z,14.65
2022-10-08T20:14:10.487Z,14.64
2022-10-08T20:16:40.705Z,14.61
2022-10-08T20:19:19.555Z,14.63
2022-10-08T20:21:47.982Z,14.64
2022-10-08T20:24:15.936Z,14.62
2022-10-08T20:26:44.332Z,14.61
2022-10-08T20:29:14.400Z,14.58
2022-10-08T20:31:49.747Z,14.62
2022-10-08T20:34:19.659Z,14.58
2022-10-08T20:36:47.613Z,14.57
2022-10-08T20:39:16.322Z,14.55
2022-10-08T20:41:46.090Z,14.53
2022-10-08T20:44:13.803Z,14.55
2022-10-08T20:46:41.194Z,14.54
2022-10-08T20:49:11.095Z,14.57
2022-10-08T20:51:44.637Z,14.57
2022-10-08T20:54:14.451Z,14.60
2022-10-08T20:56:42.541Z,14.60
2022-10-08T20:59:13.838Z,14.59
2022-10-08T21:01:41.141Z,14.60
2022-10-08T21:04:08.196Z,14.64
2022-10-08T21:06:43.599Z,14.65
2022-10-08T21:09:12.699Z,14.72
2022-10-08T21:11:40.099Z,14.70
2022-10-08T21:14:10.082Z,14.68
2022-10-08T21:16:39.925Z,14.67
2022-10-08T21:19:11.241Z,14.71
2022-10-08T21:21:38.424Z,14.71
2022-10-08T21:24:08.267Z,14.72
2022-10-08T21:26:37.984Z,14.68
2022-10-08T21:29:11.283Z,14.68
2022-10-08T21:31:40.078Z,14.65
2022-10-08T21:34:07.590Z,14.68
2022-10-08T21:36:37.448Z,14.71
2022-10-08T21:39:06.698Z,14.71
2022-10-08T21:41:36.375Z,14.71
2022-10-08T21:44:05.715Z,14.71
2022-10-08T21:46:36.097Z,14.74
2022-10-08T21:49:15.995Z,14.71
2022-10-08T21:51:42.992Z,14.70
2022-10-08T21:54:11.388Z,14.68
2022-10-08T21:56:40.347Z,14.69
2022-10-08T21:59:12.448Z,14.74
2022-10-08T22:01:47.910Z,14.74
2022-10-08T22:04:25.445Z,14.74
2022-10-08T22:06:55.461Z,14.76
2022-10-08T22:09:26.918Z,14.76
2022-10-08T22:11:55.809Z,14.77
2022-10-08T22:14:23.540Z,14.77
2022-10-08T22:16:50.900Z,14.70
2022-10-08T22:19:18.298Z,14.65
2022-10-08T22:21:46.021Z,14.65
2022-10-08T22:24:13.122Z,14.65
2022-10-08T22:26:43.755Z,14.58
2022-10-08T22:29:10.926Z,14.60
2022-10-08T22:31:38.583Z,14.59
2022-10-08T22:34:06.042Z,14.64
2022-10-08T22:36:36.639Z,14.62
2022-10-08T22:39:03.844Z,14.60
2022-10-08T22:41:32.834Z,14.67
2022-10-08T22:44:03.832Z,14.65
2022-10-08T22:46:35.381Z,14.63
2022-10-08T22:49:05.199Z,14.62
2022-10-08T22:51:32.232Z,14.62
2022-10-08T22:54:01.876Z,14.55
2022-10-08T22:56:30.973Z,14.58
2022-10-08T22:58:59.351Z,14.57
2022-10-08T23:01:30.495Z,14.54
2022-10-08T23:03:58.243Z,14.48
2022-10-08T23:06:31.933Z,14.48
2022-10-08T23:09:01.647Z,14.48
2022-10-08T23:11:30.179Z,14.45
2022-10-08T23:13:59.273Z,14.45
2022-10-08T23:16:28.564Z,14.46
2022-10-08T23:19:10.005Z,14.43
2022-10-08T23:21:38.013Z,14.46
2022-10-08T23:24:05.873Z,14.45
2022-10-08T23:26:33.216Z,14.44
2022-10-08T23:29:01.597Z,14.55
2022-10-08T23:31:31.106Z,14.55
2022-10-08T23:34:01.551Z,14.59
2022-10-08T23:36:32.283Z,14.64
2022-10-08T23:38:59.388Z,14.61
2022-10-08T23:41:27.053Z,14.56
2022-10-08T23:43:57.112Z,14.56
2022-10-08T23:46:26.725Z,14.56
2022-10-08T23:48:54.366Z,14.57
2022-10-08T23:51:23.244Z,14.62
2022-10-08T23:53:52.039Z,14.60
2022-10-08T23:56:20.572Z,14.59
2022-10-08T23:58:48.958Z,14.53
